createdAt,value
2018-12-17T00:01:32.191Z,17.30
2018-12-17T00:04:02.523Z,12.33
2018-12-17T00:06:34.130Z,9.10
2018-12-17T00:09:05.620Z,14.97
2018-12-17T00:11:35.882Z,13.07
2018-12-17T00:14:06.351Z,16.50
2018-12-17T00:16:37.627Z,10.97
2018-12-17T00:19:08.366Z,10.40
2018-12-17T00:21:38.696Z,13.93
2018-12-17T00:24:08.990Z,13.60
2018-12-17T00:26:40.433Z,25.63
2018-12-17T00:29:11.143Z,21.93
2018-12-17T00:31:41.264Z,19.87
2018-12-17T00:34:11.578Z,18.00
2018-12-17T00:36:41.810Z,10.50
2018-12-17T00:39:12.522Z,50.10
2018-12-17T00:41:43.135Z,41.17
2018-12-17T00:44:13.803Z,17.17
2018-12-17T00:46:44.736Z,14.57
2018-12-17T00:49:15.479Z,7.53
2018-12-17T00:51:45.882Z,12.40
2018-12-17T00:54:16.335Z,12.30
2018-12-17T00:56:47.538Z,9.00
2018-12-17T00:59:18.278Z,6.13
2018-12-17T01:01:48.495Z,9.23
2018-12-17T01:04:18.958Z,5.93
2018-12-17T01:06:50.231Z,4.60
2018-12-17T01:09:20.395Z,4.77
2018-12-17T01:11:50.718Z,6.13
2018-12-17T01:14:21.420Z,5.90
2018-12-17T01:16:51.783Z,6.40
2018-12-17T01:19:22.530Z,5.30
2018-12-17T01:21:53.220Z,7.90
2018-12-17T01:24:23.548Z,31.57
2018-12-17T01:26:54.604Z,6.03
2018-12-17T01:29:24.949Z,8.53
2018-12-17T01:31:55.371Z,7.87
2018-12-17T01:34:25.699Z,16.37
2018-12-17T01:36:55.938Z,8.60
2018-12-17T01:39:25.739Z,16.30
2018-12-17T01:41:56.135Z,11.57
2018-12-17T01:44:26.677Z,15.10
2018-12-17T01:46:57.617Z,25.13
2018-12-17T01:49:28.037Z,27.37
2018-12-17T01:51:58.555Z,5.13
2018-12-17T01:54:28.903Z,9.90
2018-12-17T01:57:00.456Z,7.90
2018-12-17T01:59:30.552Z,9.47
2018-12-17T02:02:00.749Z,8.73
2018-12-17T02:04:31.265Z,12.03
2018-12-17T02:07:02.063Z,13.50
2018-12-17T02:09:32.569Z,14.50
2018-12-17T02:12:03.239Z,9.93
2018-12-17T02:14:34.015Z,18.03
2018-12-17T02:17:04.747Z,16.90
2018-12-17T02:19:35.056Z,16.83
2018-12-17T02:22:05.729Z,23.43
2018-12-17T02:24:36.142Z,20.97
2018-12-17T02:27:07.947Z,13.13
2018-12-17T02:29:38.420Z,9.13
2018-12-17T02:32:08.879Z,14.57
2018-12-17T02:34:39.409Z,17.90
2018-12-17T02:37:10.032Z,10.00
2018-12-17T02:39:40.366Z,11.03
2018-12-17T02:42:10.994Z,33.47
2018-12-17T02:44:41.627Z,13.93
2018-12-17T02:47:12.919Z,9.60
2018-12-17T02:49:43.490Z,8.00
2018-12-17T02:52:14.033Z,6.90
2018-12-17T02:54:44.390Z,11.07
2018-12-17T02:57:15.883Z,7.80
2018-12-17T02:59:46.689Z,5.47
2018-12-17T03:02:17.356Z,6.20
2018-12-17T03:04:47.990Z,6.47
2018-12-17T03:07:18.326Z,5.47
2018-12-17T03:09:48.802Z,8.53
2018-12-17T03:12:19.494Z,6.30
2018-12-17T03:14:50.013Z,8.83
2018-12-17T03:17:21.315Z,15.73
2018-12-17T03:19:51.786Z,11.57
2018-12-17T03:22:22.523Z,8.30
2018-12-17T03:24:52.610Z,5.93
2018-12-17T03:27:23.826Z,6.40
2018-12-17T03:29:54.126Z,7.30
2018-12-17T03:32:24.491Z,10.20
2018-12-17T03:34:55.054Z,8.40
2018-12-17T03:37:26.283Z,13.17
2018-12-17T03:39:56.489Z,9.93
2018-12-17T03:42:27.056Z,13.10
2018-12-17T03:44:57.471Z,11.73
2018-12-17T03:47:27.909Z,9.40
2018-12-17T03:49:58.618Z,21.57
2018-12-17T03:52:29.077Z,62.57
2018-12-17T03:54:59.500Z,42.13
2018-12-17T03:57:30.814Z,26.27
2018-12-17T04:00:01.267Z,28.40
2018-12-17T04:02:31.565Z,37.57
2018-12-17T04:05:02.182Z,48.50
2018-12-17T04:07:33.291Z,41.73
2018-12-17T04:10:03.471Z,46.43
2018-12-17T04:12:33.891Z,35.87
2018-12-17T04:15:04.756Z,41.90
2018-12-17T04:17:36.096Z,35.20
2018-12-17T04:20:13.169Z,30.17
2018-12-17T04:22:43.615Z,25.37
2018-12-17T04:25:14.114Z,36.97
2018-12-17T04:27:44.547Z,32.70
2018-12-17T04:30:16.366Z,27.33
2018-12-17T04:32:46.916Z,29.30
2018-12-17T04:35:17.636Z,39.03
2018-12-17T04:37:48.367Z,43.77
2018-12-17T04:40:18.912Z,37.40
2018-12-17T04:42:49.426Z,37.60
2018-12-17T04:45:20.162Z,23.43
2018-12-17T04:47:50.559Z,18.80
2018-12-17T04:50:21.815Z,10.67
2018-12-17T04:52:52.472Z,151.87
2018-12-17T04:55:23.195Z,23.33
2018-12-17T04:57:53.986Z,23.70
2018-12-17T05:00:24.761Z,17.40
2018-12-17T05:02:54.919Z,22.93
2018-12-17T05:05:24.693Z,10.20
2018-12-17T05:07:54.406Z,27.73
2018-12-17T05:10:25.257Z,24.77
2018-12-17T05:12:55.020Z,17.00
2018-12-17T05:15:24.791Z,13.37
2018-12-17T05:17:54.490Z,9.87
2018-12-17T05:20:24.598Z,10.87
2018-12-17T05:22:54.378Z,44.77
2018-12-17T05:25:24.066Z,254.80
2018-12-17T05:27:53.842Z,26.57
2018-12-17T05:30:23.581Z,21.30
2018-12-17T05:32:53.310Z,14.57
2018-12-17T05:35:23.554Z,23.83
2018-12-17T05:37:53.318Z,12.63
2018-12-17T05:40:23.008Z,16.63
2018-12-17T05:42:52.866Z,15.67
2018-12-17T05:45:22.568Z,25.60
2018-12-17T05:47:52.316Z,18.07
2018-12-17T05:50:22.022Z,22.97
2018-12-17T05:52:51.829Z,39.87
2018-12-17T05:55:21.546Z,58.10
2018-12-17T05:57:51.277Z,86.60
2018-12-17T06:00:20.999Z,72.47
2018-12-17T06:02:50.640Z,61.30
2018-12-17T06:05:20.414Z,70.60
2018-12-17T06:07:50.135Z,64.17
2018-12-17T06:10:19.934Z,47.47
2018-12-17T06:12:49.663Z,54.43
2018-12-17T06:15:19.389Z,58.77
2018-12-17T06:17:49.941Z,69.10
2018-12-17T06:20:20.693Z,102.50
2018-12-17T06:22:50.540Z,105.43
2018-12-17T06:25:20.155Z,104.20
2018-12-17T06:27:49.798Z,84.17
2018-12-17T06:30:19.646Z,90.40
2018-12-17T06:32:49.307Z,85.17
2018-12-17T06:35:19.967Z,134.37
2018-12-17T06:37:50.369Z,124.00
2018-12-17T06:40:21.017Z,123.83
2018-12-17T06:42:50.691Z,94.57
2018-12-17T06:45:20.367Z,75.77
2018-12-17T06:47:50.149Z,61.27
2018-12-17T06:50:19.806Z,48.20
2018-12-17T06:52:49.450Z,22.10
2018-12-17T06:55:19.324Z,20.10
2018-12-17T06:57:49.302Z,16.80
2018-12-17T07:00:19.019Z,15.63
2018-12-17T07:02:48.783Z,26.73
2018-12-17T07:05:18.355Z,18.60
2018-12-17T07:10:42.693Z,24.67
2018-12-17T07:13:13.317Z,24.60
2018-12-17T07:15:43.956Z,21.37
2018-12-17T07:18:14.775Z,30.70
2018-12-17T07:20:45.664Z,16.07
2018-12-17T07:23:17.395Z,22.57
2018-12-17T07:25:47.822Z,16.80
2018-12-17T07:28:18.438Z,15.73
2018-12-17T07:30:50.091Z,9.33
2018-12-17T07:33:20.475Z,10.07
2018-12-17T07:35:50.892Z,8.90
2018-12-17T07:38:21.478Z,15.57
2018-12-17T07:40:52.668Z,14.83
2018-12-17T07:43:22.924Z,12.43
2018-12-17T07:45:53.283Z,12.30
2018-12-17T07:48:23.794Z,12.70
2018-12-17T07:50:55.142Z,12.13
2018-12-17T07:53:25.530Z,12.37
2018-12-17T07:55:55.877Z,18.40
2018-12-17T07:58:26.102Z,20.63
2018-12-17T08:00:56.964Z,21.00
2018-12-17T08:03:27.386Z,28.93
2018-12-17T08:05:57.917Z,35.80
2018-12-17T08:08:35.182Z,38.47
2018-12-17T08:11:02.086Z,15.37
2018-12-17T08:13:32.764Z,21.27
2018-12-17T08:16:02.956Z,31.00
2018-12-17T08:18:33.484Z,38.87
2018-12-17T08:21:04.212Z,19.23
2018-12-17T08:23:34.735Z,42.70
2018-12-17T08:26:05.198Z,16.77
2018-12-17T08:28:35.546Z,23.13
2018-12-17T08:31:07.126Z,32.97
2018-12-17T08:33:37.811Z,21.13
2018-12-17T08:36:08.473Z,51.73
2018-12-17T08:38:38.990Z,32.93
2018-12-17T08:41:09.315Z,31.90
2018-12-17T08:43:39.818Z,39.20
2018-12-17T08:46:10.435Z,54.90
2018-12-17T08:48:40.932Z,58.63
2018-12-17T08:51:12.116Z,38.13
2018-12-17T08:53:42.428Z,35.97
2018-12-17T08:56:13.063Z,21.63
2018-12-17T08:58:42.851Z,19.47
2018-12-17T09:01:13.932Z,20.90
2018-12-17T09:03:43.931Z,14.13
2018-12-17T09:06:14.418Z,18.37
2018-12-17T09:08:45.111Z,19.60
2018-12-17T09:11:16.656Z,23.30
2018-12-17T09:13:47.169Z,27.03
2018-12-17T09:16:17.821Z,23.57
2018-12-17T09:18:48.195Z,21.37
2018-12-17T09:21:19.906Z,28.50
2018-12-17T09:23:50.739Z,57.10
2018-12-17T09:26:21.333Z,33.33
2018-12-17T09:28:51.627Z,36.00
2018-12-17T09:31:21.909Z,42.80
2018-12-17T09:33:52.329Z,41.40
2018-12-17T09:36:23.059Z,37.23
2018-12-17T09:38:53.776Z,42.90
2018-12-17T09:41:24.219Z,39.63
2018-12-17T09:43:54.974Z,38.80
2018-12-17T09:46:25.542Z,41.07
2018-12-17T09:48:56.467Z,47.87
2018-12-17T09:51:26.969Z,40.57
2018-12-17T09:53:57.579Z,43.00
2018-12-17T09:56:28.218Z,36.10
2018-12-17T09:58:58.838Z,43.57
2018-12-17T10:01:29.960Z,29.13
2018-12-17T10:04:00.422Z,35.83
2018-12-17T10:06:30.913Z,46.40
2018-12-17T10:09:01.438Z,40.23
2018-12-17T10:11:32.402Z,41.23
2018-12-17T10:14:02.839Z,55.50
2018-12-17T10:16:33.689Z,55.47
2018-12-17T10:19:03.951Z,55.87
2018-12-17T10:21:35.333Z,36.03
2018-12-17T10:24:06.332Z,50.43
2018-12-17T10:26:36.860Z,45.80
2018-12-17T10:29:07.331Z,43.73
2018-12-17T10:31:38.689Z,34.50
2018-12-17T10:34:09.083Z,78.40
2018-12-17T10:36:39.754Z,48.17
2018-12-17T10:39:10.166Z,35.70
2018-12-17T10:41:40.712Z,39.50
2018-12-17T10:44:11.301Z,39.67
2018-12-17T10:46:41.568Z,31.97
2018-12-17T10:49:12.176Z,44.60
2018-12-17T10:51:43.322Z,46.97
2018-12-17T10:54:13.527Z,34.83
2018-12-17T10:56:44.196Z,56.50
2018-12-17T10:59:14.621Z,36.07
2018-12-17T11:02:20.637Z,30.83
2018-12-17T11:04:55.254Z,29.40
2018-12-17T11:07:25.852Z,31.63
2018-12-17T11:09:55.842Z,32.93
2018-12-17T11:12:26.557Z,27.97
2018-12-17T11:14:56.944Z,32.20
2018-12-17T11:17:27.327Z,36.23
2018-12-17T11:19:58.176Z,30.40
2018-12-17T11:22:28.556Z,20.33
2018-12-17T11:24:58.922Z,15.00
2018-12-17T11:27:29.426Z,29.37
2018-12-17T11:30:00.085Z,13.90
2018-12-17T11:32:30.968Z,18.70
2018-12-17T11:35:01.331Z,17.90
2018-12-17T11:37:31.858Z,25.10
2018-12-17T11:40:02.402Z,20.97
2018-12-17T11:42:33.249Z,16.00
2018-12-17T11:45:04.121Z,13.23
2018-12-17T11:47:34.571Z,13.83
2018-12-17T11:50:06.377Z,10.97
2018-12-17T11:52:36.641Z,13.13
2018-12-17T11:55:07.234Z,89.93
2018-12-17T11:58:41.009Z,19.10
2018-12-17T12:01:12.159Z,44.97
2018-12-17T12:03:44.232Z,116.27
2018-12-17T12:06:14.819Z,31.93
2018-12-17T12:08:46.125Z,27.57
2018-12-17T12:11:16.411Z,21.73
2018-12-17T12:13:47.075Z,25.43
2018-12-17T12:16:17.619Z,47.03
2018-12-17T12:18:48.723Z,38.03
2018-12-17T12:21:19.346Z,32.73
2018-12-17T12:23:49.739Z,33.33
2018-12-17T12:26:20.299Z,30.50
2018-12-17T12:28:51.209Z,27.37
2018-12-17T12:31:21.746Z,23.80
2018-12-17T12:33:51.950Z,19.47
2018-12-17T12:36:22.296Z,28.73
2018-12-17T12:38:53.150Z,27.30
2018-12-17T12:41:23.563Z,29.93
2018-12-17T12:43:54.033Z,53.93
2018-12-17T12:46:24.288Z,31.50
2018-12-17T12:48:54.973Z,35.80
2018-12-17T12:51:32.432Z,28.00
2018-12-17T12:53:58.050Z,29.90
2018-12-17T12:56:28.772Z,23.93
2018-12-17T12:58:59.331Z,29.03
2018-12-17T13:01:29.926Z,30.20
2018-12-17T13:04:00.564Z,24.13
2018-12-17T13:06:31.744Z,20.47
2018-12-17T13:09:02.135Z,18.47
2018-12-17T13:11:32.410Z,19.53
2018-12-17T13:14:02.857Z,29.63
2018-12-17T13:16:33.522Z,25.30
2018-12-17T13:19:04.175Z,22.73
2018-12-17T13:21:34.707Z,39.03
2018-12-17T13:24:05.235Z,29.57
2018-12-17T13:26:36.283Z,35.70
2018-12-17T13:29:06.527Z,28.50
2018-12-17T13:31:37.021Z,31.40
2018-12-17T13:34:07.480Z,42.77
2018-12-17T13:36:38.666Z,55.50
2018-12-17T13:39:09.462Z,30.00
2018-12-17T13:41:39.951Z,31.60
2018-12-17T13:44:10.529Z,34.93
2018-12-17T13:46:42.029Z,45.57
2018-12-17T13:49:12.339Z,36.07
2018-12-17T13:51:48.375Z,33.87
2018-12-17T13:54:18.836Z,37.03
2018-12-17T13:56:50.083Z,23.47
2018-12-17T13:59:20.530Z,28.17
2018-12-17T14:01:51.642Z,29.23
2018-12-17T14:04:22.265Z,29.70
2018-12-17T14:06:53.834Z,42.23
2018-12-17T14:09:26.906Z,49.20
2018-12-17T14:11:56.952Z,49.20
2018-12-17T14:14:27.772Z,59.20
2018-12-17T14:17:04.329Z,50.73
2018-12-17T14:19:34.875Z,47.70
2018-12-17T14:22:08.362Z,29.73
2018-12-17T14:24:39.006Z,29.97
2018-12-17T14:27:09.534Z,31.13
2018-12-17T14:29:40.282Z,25.90
2018-12-17T14:32:10.895Z,35.63
2018-12-17T14:34:41.542Z,34.77
2018-12-17T14:37:12.455Z,23.83
2018-12-17T14:39:42.848Z,23.97
2018-12-17T14:42:13.533Z,37.67
2018-12-17T14:44:43.937Z,31.57
2018-12-17T14:47:15.398Z,22.00
2018-12-17T14:49:45.591Z,11.90
2018-12-17T14:52:17.343Z,13.57
2018-12-17T14:54:47.756Z,16.07
2018-12-17T14:57:19.418Z,18.33
2018-12-17T14:59:50.091Z,59.67
2018-12-17T15:02:20.617Z,167.43
2018-12-17T15:05:53.751Z,160.23
2018-12-17T15:08:24.098Z,105.80
2018-12-17T15:10:54.625Z,81.47
2018-12-17T15:13:24.815Z,73.23
2018-12-17T15:15:55.640Z,57.33
2018-12-17T15:18:26.045Z,58.67
2018-12-17T15:20:56.466Z,61.43
2018-12-17T15:23:27.359Z,68.10
2018-12-17T15:25:57.863Z,67.20
2018-12-17T15:28:28.639Z,87.20
2018-12-17T15:30:59.264Z,96.70
2018-12-17T15:33:30.083Z,60.83
2018-12-17T15:36:00.343Z,80.00
2018-12-17T15:38:30.843Z,74.27
2018-12-17T15:41:01.204Z,50.07
2018-12-17T15:43:31.824Z,42.20
2018-12-17T15:46:02.361Z,38.57
2018-12-17T15:48:32.815Z,37.13
2018-12-17T15:51:03.434Z,65.77
2018-12-17T15:53:34.357Z,44.23
2018-12-17T15:56:04.787Z,70.30
2018-12-17T15:58:35.320Z,55.87
2018-12-17T16:01:05.886Z,47.57
2018-12-17T16:03:36.218Z,43.10
2018-12-17T16:06:06.519Z,46.83
2018-12-17T16:08:36.924Z,30.77
2018-12-17T16:11:07.657Z,29.10
2018-12-17T16:13:38.790Z,24.10
2018-12-17T16:16:09.408Z,26.27
2018-12-17T16:18:39.970Z,80.27
2018-12-17T16:21:10.326Z,80.53
2018-12-17T16:23:41.528Z,72.83
2018-12-17T16:26:11.935Z,87.50
2018-12-17T16:28:42.433Z,97.60
2018-12-17T16:31:12.732Z,90.20
2018-12-17T16:33:44.007Z,82.43
2018-12-17T16:36:14.786Z,98.73
2018-12-17T16:38:45.211Z,99.87
2018-12-17T16:41:15.265Z,89.13
2018-12-17T16:43:45.457Z,82.17
2018-12-17T16:46:15.873Z,98.47
2018-12-17T16:48:46.489Z,103.47
2018-12-17T16:51:17.241Z,150.97
2018-12-17T16:53:48.319Z,175.23
2018-12-17T16:56:18.804Z,79.47
2018-12-17T16:58:49.350Z,98.40
2018-12-17T17:01:19.772Z,71.93
2018-12-17T17:03:50.833Z,84.47
2018-12-17T17:06:21.240Z,105.13
2018-12-17T17:08:51.966Z,102.60
2018-12-17T17:11:22.710Z,91.63
2018-12-17T17:13:53.740Z,77.83
2018-12-17T17:16:24.339Z,60.87
2018-12-17T17:18:54.993Z,78.17
2018-12-17T17:21:25.432Z,80.07
2018-12-17T17:23:56.671Z,81.00
2018-12-17T17:26:27.063Z,69.67
2018-12-17T17:28:57.525Z,90.67
2018-12-17T17:31:27.944Z,77.30
2018-12-17T17:33:59.421Z,72.37
2018-12-17T17:36:29.849Z,78.93
2018-12-17T17:39:00.305Z,85.73
2018-12-17T17:41:30.784Z,108.30
2018-12-17T17:44:01.809Z,71.93
2018-12-17T17:46:32.340Z,56.27
2018-12-17T17:49:02.895Z,39.57
2018-12-17T17:51:33.252Z,68.00
2018-12-17T17:54:04.784Z,68.40
2018-12-17T17:56:34.951Z,76.20
2018-12-17T17:59:05.515Z,90.97
2018-12-17T18:01:36.028Z,85.97
2018-12-17T18:04:07.720Z,93.37
2018-12-17T18:06:38.336Z,100.87
2018-12-17T18:09:10.122Z,93.20
2018-12-17T18:11:40.564Z,82.43
2018-12-17T18:14:11.310Z,74.40
2018-12-17T18:16:41.996Z,76.00
2018-12-17T18:19:12.296Z,77.33
2018-12-17T18:21:42.570Z,58.57
2018-12-17T18:24:14.365Z,73.57
2018-12-17T18:26:45.210Z,92.40
2018-12-17T18:29:15.636Z,72.90
2018-12-17T18:31:46.415Z,69.60
2018-12-17T18:34:17.580Z,60.90
2018-12-17T18:36:48.012Z,51.17
2018-12-17T18:39:19.331Z,54.80
2018-12-17T18:41:49.823Z,49.67
2018-12-17T18:44:20.972Z,58.50
2018-12-17T18:46:51.446Z,77.00
2018-12-17T18:49:22.123Z,59.47
2018-12-17T18:51:52.738Z,50.50
2018-12-17T18:54:23.561Z,66.73
2018-12-17T18:56:54.095Z,55.77
2018-12-17T18:59:24.422Z,75.30
2018-12-17T19:01:54.875Z,61.80
2018-12-17T19:04:25.195Z,75.33
2018-12-17T19:06:55.812Z,76.43
2018-12-17T19:09:26.459Z,51.03
2018-12-17T19:11:56.983Z,45.00
2018-12-17T19:14:27.605Z,30.37
2018-12-17T19:16:58.344Z,50.17
2018-12-17T19:19:28.944Z,47.47
2018-12-17T19:21:59.274Z,43.43
2018-12-17T19:24:29.520Z,37.10
2018-12-17T19:26:59.965Z,38.07
2018-12-17T19:29:30.482Z,25.73
2018-12-17T19:32:00.856Z,31.20
2018-12-17T19:34:32.112Z,30.87
2018-12-17T19:37:02.683Z,53.57
2018-12-17T19:39:32.979Z,50.60
2018-12-17T19:42:03.402Z,66.27
2018-12-17T19:44:34.524Z,75.13
2018-12-17T19:47:05.075Z,82.80
2018-12-17T19:49:35.298Z,62.20
2018-12-17T19:52:05.715Z,107.60
2018-12-17T19:54:36.138Z,90.37
2018-12-17T19:57:06.799Z,74.43
2018-12-17T19:59:37.206Z,62.80
2018-12-17T20:02:07.566Z,82.37
2018-12-17T20:04:38.393Z,91.97
2018-12-17T20:07:09.093Z,97.47
2018-12-17T20:09:39.635Z,121.83
2018-12-17T20:12:10.016Z,129.30
2018-12-17T20:14:41.008Z,138.57
2018-12-17T20:17:11.661Z,123.80
2018-12-17T20:19:41.849Z,137.50
2018-12-17T20:22:12.312Z,135.87
2018-12-17T20:24:42.810Z,131.30
2018-12-17T20:27:13.265Z,135.93
2018-12-17T20:29:50.256Z,112.03
2018-12-17T20:32:16.222Z,112.20
2018-12-17T20:34:46.465Z,124.67
2018-12-17T20:37:17.109Z,101.50
2018-12-17T20:39:47.443Z,85.53
2018-12-17T20:42:18.047Z,97.97
2018-12-17T20:44:49.076Z,84.90
2018-12-17T20:47:19.472Z,85.10
2018-12-17T20:49:49.927Z,78.03
2018-12-17T20:52:20.481Z,83.23
2018-12-17T20:54:51.564Z,94.03
2018-12-17T20:57:22.092Z,69.70
2018-12-17T20:59:52.774Z,80.40
2018-12-17T21:02:23.993Z,80.30
2018-12-17T21:04:55.075Z,82.47
2018-12-17T21:07:25.707Z,69.90
2018-12-17T21:09:56.406Z,52.30
2018-12-17T21:12:26.849Z,35.50
2018-12-17T21:14:57.568Z,32.83
2018-12-17T21:17:28.269Z,75.57
2018-12-17T21:19:58.859Z,57.47
2018-12-17T21:22:29.126Z,39.13
2018-12-17T21:25:00.275Z,38.93
2018-12-17T21:27:30.670Z,35.40
2018-12-17T21:30:01.064Z,41.40
2018-12-17T21:32:31.364Z,40.77
2018-12-17T21:35:02.304Z,37.90
2018-12-17T21:37:33.062Z,35.37
2018-12-17T21:40:03.688Z,50.17
2018-12-17T21:42:34.099Z,48.57
2018-12-17T21:45:05.341Z,60.37
2018-12-17T21:47:35.770Z,62.73
2018-12-17T21:50:06.729Z,59.90
2018-12-17T21:52:37.043Z,65.60
2018-12-17T21:55:08.869Z,75.93
2018-12-17T21:57:39.545Z,86.00
2018-12-17T22:00:10.075Z,70.03
2018-12-17T22:02:40.578Z,69.33
2018-12-17T22:05:11.099Z,65.07
2018-12-17T22:07:41.742Z,64.40
2018-12-17T22:10:15.251Z,57.20
2018-12-17T22:12:46.085Z,63.30
2018-12-17T22:15:16.702Z,83.37
2018-12-17T22:17:47.455Z,81.87
2018-12-17T22:20:18.109Z,91.33
2018-12-17T22:22:48.692Z,94.57
2018-12-17T22:25:20.050Z,86.33
2018-12-17T22:27:50.335Z,82.57
2018-12-17T22:30:20.958Z,68.47
2018-12-17T22:32:51.354Z,74.57
2018-12-17T22:35:22.631Z,81.17
2018-12-17T22:37:53.018Z,102.47
2018-12-17T22:40:23.436Z,88.20
2018-12-17T22:42:54.068Z,70.47
2018-12-17T22:45:25.504Z,51.67
2018-12-17T22:47:55.994Z,56.10
2018-12-17T22:50:26.472Z,57.90
2018-12-17T22:52:56.797Z,43.80
2018-12-17T22:55:28.394Z,33.50
2018-12-17T22:57:58.827Z,39.70
2018-12-17T23:00:28.961Z,45.50
2018-12-17T23:02:59.783Z,42.23
2018-12-17T23:05:30.002Z,40.80
2018-12-17T23:08:00.566Z,46.53
2018-12-17T23:10:45.337Z,42.60
2018-12-17T23:13:26.375Z,42.63
2018-12-17T23:16:07.252Z,50.73
2018-12-17T23:18:36.427Z,43.07
2018-12-17T23:21:07.734Z,47.93
2018-12-17T23:23:38.498Z,43.33
2018-12-17T23:26:08.910Z,35.53
2018-12-17T23:28:39.231Z,43.53
2018-12-17T23:31:09.998Z,42.23
2018-12-17T23:33:41.385Z,36.13
2018-12-17T23:36:12.746Z,38.23
2018-12-17T23:38:43.375Z,38.23
2018-12-17T23:41:13.922Z,41.63
2018-12-17T23:43:45.061Z,43.13
2018-12-17T23:46:15.687Z,43.43
2018-12-17T23:48:45.811Z,50.63
2018-12-17T23:51:16.629Z,44.60
2018-12-17T23:53:47.741Z,60.73
2018-12-17T23:56:18.079Z,58.90
2018-12-17T23:58:48.819Z,45.80
